sensor_id;sensor_type;location;lat;lon;timestamp;temperature;humidity
45735;DHT22;31446;49.632;8.328;2023-08-06T00:02:39;16.20;99.90
45735;DHT22;31446;49.632;8.328;2023-08-06T00:17:45;16.30;99.90
45735;DHT22;31446;49.632;8.328;2023-08-06T00:32:55;16.30;99.90
45735;DHT22;31446;49.632;8.328;2023-08-06T00:48:01;16.10;99.90
45735;DHT22;31446;49.632;8.328;2023-08-06T01:03:09;16.00;99.90
45735;DHT22;31446;49.632;8.328;2023-08-06T01:18:15;15.70;99.90
45735;DHT22;31446;49.632;8.328;2023-08-06T01:33:22;15.50;99.90
45735;DHT22;31446;49.632;8.328;2023-08-06T01:48:29;15.50;99.90
45735;DHT22;31446;49.632;8.328;2023-08-06T02:03:35;15.90;99.90
45735;DHT22;31446;49.632;8.328;2023-08-06T02:18:42;15.90;99.90
45735;DHT22;31446;49.632;8.328;2023-08-06T02:33:48;15.80;99.90
45735;DHT22;31446;49.632;8.328;2023-08-06T02:48:55;15.60;99.90
45735;DHT22;31446;49.632;8.328;2023-08-06T03:04:01;15.60;99.90
45735;DHT22;31446;49.632;8.328;2023-08-06T03:19:08;15.80;99.90
45735;DHT22;31446;49.632;8.328;2023-08-06T03:34:14;15.90;99.90
45735;DHT22;31446;49.632;8.328;2023-08-06T03:49:21;16.20;99.90
45735;DHT22;31446;49.632;8.328;2023-08-06T04:04:27;16.20;99.90
45735;DHT22;31446;49.632;8.328;2023-08-06T04:19:33;16.00;99.90
45735;DHT22;31446;49.632;8.328;2023-08-06T04:34:40;16.00;99.90
45735;DHT22;31446;49.632;8.328;2023-08-06T04:49:46;16.00;99.90
45735;DHT22;31446;49.632;8.328;2023-08-06T05:04:53;16.10;99.90
45735;DHT22;31446;49.632;8.328;2023-08-06T05:19:59;16.00;99.90
45735;DHT22;31446;49.632;8.328;2023-08-06T05:35:06;16.00;99.90
45735;DHT22;31446;49.632;8.328;2023-08-06T05:50:13;16.00;99.90
45735;DHT22;31446;49.632;8.328;2023-08-06T06:05:19;16.10;99.90
45735;DHT22;31446;49.632;8.328;2023-08-06T06:20:26;16.30;99.90
45735;DHT22;31446;49.632;8.328;2023-08-06T06:35:33;16.40;99.90
45735;DHT22;31446;49.632;8.328;2023-08-06T06:50:39;16.60;99.90
45735;DHT22;31446;49.632;8.328;2023-08-06T07:05:46;16.70;99.90
45735;DHT22;31446;49.632;8.328;2023-08-06T07:20:55;16.80;99.90
45735;DHT22;31446;49.632;8.328;2023-08-06T07:36:07;17.40;99.90
45735;DHT22;31446;49.632;8.328;2023-08-06T07:51:14;17.80;99.90
45735;DHT22;31446;49.632;8.328;2023-08-06T08:06:20;17.90;99.90
45735;DHT22;31446;49.632;8.328;2023-08-06T08:21:27;18.40;99.90
45735;DHT22;31446;49.632;8.328;2023-08-06T08:36:33;19.20;99.90
45735;DHT22;31446;49.632;8.328;2023-08-06T08:51:40;20.10;99.90
45735;DHT22;31446;49.632;8.328;2023-08-06T09:06:48;19.70;99.90
45735;DHT22;31446;49.632;8.328;2023-08-06T09:21:56;19.90;99.90
45735;DHT22;31446;49.632;8.328;2023-08-06T09:37:03;20.30;99.90
45735;DHT22;31446;49.632;8.328;2023-08-06T09:52:12;19.80;99.90
45735;DHT22;31446;49.632;8.328;2023-08-06T10:07:19;19.20;99.90
45735;DHT22;31446;49.632;8.328;2023-08-06T10:22:27;18.70;99.90
45735;DHT22;31446;49.632;8.328;2023-08-06T10:37:40;18.70;99.90
45735;DHT22;31446;49.632;8.328;2023-08-06T10:52:46;19.10;99.90
45735;DHT22;31446;49.632;8.328;2023-08-06T11:07:53;19.10;99.90
45735;DHT22;31446;49.632;8.328;2023-08-06T11:23:01;18.50;99.90
45735;DHT22;31446;49.632;8.328;2023-08-06T11:38:08;19.10;99.90
45735;DHT22;31446;49.632;8.328;2023-08-06T11:53:16;18.80;99.90
45735;DHT22;31446;49.632;8.328;2023-08-06T12:08:26;18.60;99.90
45735;DHT22;31446;49.632;8.328;2023-08-06T12:23:33;19.00;99.90
45735;DHT22;31446;49.632;8.328;2023-08-06T12:38:39;19.00;99.90
45735;DHT22;31446;49.632;8.328;2023-08-06T12:53:45;18.80;99.90
45735;DHT22;31446;49.632;8.328;2023-08-06T13:08:52;18.40;99.90
45735;DHT22;31446;49.632;8.328;2023-08-06T13:23:58;18.20;99.90
45735;DHT22;31446;49.632;8.328;2023-08-06T13:39:04;18.10;99.90
45735;DHT22;31446;49.632;8.328;2023-08-06T13:54:11;17.90;99.90
45735;DHT22;31446;49.632;8.328;2023-08-06T14:09:17;18.00;99.90
45735;DHT22;31446;49.632;8.328;2023-08-06T14:24:23;17.90;99.90
45735;DHT22;31446;49.632;8.328;2023-08-06T14:39:29;17.70;99.90
45735;DHT22;31446;49.632;8.328;2023-08-06T14:54:35;17.90;99.90
45735;DHT22;31446;49.632;8.328;2023-08-06T15:09:41;17.70;99.90
45735;DHT22;31446;49.632;8.328;2023-08-06T15:24:48;18.10;99.90
45735;DHT22;31446;49.632;8.328;2023-08-06T15:39:54;18.60;99.90
45735;DHT22;31446;49.632;8.328;2023-08-06T15:55:01;18.30;99.90
45735;DHT22;31446;49.632;8.328;2023-08-06T16:10:09;18.00;99.90
45735;DHT22;31446;49.632;8.328;2023-08-06T16:25:15;18.10;99.90
45735;DHT22;31446;49.632;8.328;2023-08-06T16:40:22;18.10;99.90
45735;DHT22;31446;49.632;8.328;2023-08-06T16:55:30;17.70;99.90
45735;DHT22;31446;49.632;8.328;2023-08-06T17:10:36;17.30;99.90
45735;DHT22;31446;49.632;8.328;2023-08-06T17:25:44;17.10;99.90
45735;DHT22;31446;49.632;8.328;2023-08-06T17:40:55;17.10;99.90
45735;DHT22;31446;49.632;8.328;2023-08-06T17:56:03;16.90;99.90
45735;DHT22;31446;49.632;8.328;2023-08-06T18:11:09;17.00;99.90
45735;DHT22;31446;49.632;8.328;2023-08-06T18:26:15;17.00;99.90
45735;DHT22;31446;49.632;8.328;2023-08-06T18:41:22;16.70;99.90
45735;DHT22;31446;49.632;8.328;2023-08-06T18:56:28;16.50;99.90
45735;DHT22;31446;49.632;8.328;2023-08-06T19:11:34;16.10;99.90
45735;DHT22;31446;49.632;8.328;2023-08-06T19:26:40;15.70;99.90
45735;DHT22;31446;49.632;8.328;2023-08-06T19:41:47;15.50;99.90
45735;DHT22;31446;49.632;8.328;2023-08-06T19:56:53;15.50;99.90
45735;DHT22;31446;49.632;8.328;2023-08-06T20:12:00;15.20;99.90
45735;DHT22;31446;49.632;8.328;2023-08-06T20:27:06;14.90;99.90
45735;DHT22;31446;49.632;8.328;2023-08-06T20:42:13;14.70;99.90
45735;DHT22;31446;49.632;8.328;2023-08-06T21:44:38;16.20;99.90
45735;DHT22;31446;49.632;8.328;2023-08-06T21:59:44;16.20;99.90
45735;DHT22;31446;49.632;8.328;2023-08-06T22:14:50;16.10;99.90
45735;DHT22;31446;49.632;8.328;2023-08-06T22:29:56;15.80;99.90
45735;DHT22;31446;49.632;8.328;2023-08-06T22:45:04;16.10;99.90
45735;DHT22;31446;49.632;8.328;2023-08-06T23:00:15;16.10;99.90
45735;DHT22;31446;49.632;8.328;2023-08-06T23:15:21;16.30;99.90
45735;DHT22;31446;49.632;8.328;2023-08-06T23:30:28;16.10;99.90
45735;DHT22;31446;49.632;8.328;2023-08-06T23:45:34;16.10;99.90
